createdAt,value
2023-03-17T00:01:09.820Z,2.22
2023-03-17T00:05:24.311Z,2.17
2023-03-17T00:09:27.084Z,2.38
2023-03-17T00:13:31.175Z,2.17
2023-03-17T00:17:33.836Z,1.85
2023-03-17T00:21:36.035Z,1.50
2023-03-17T00:25:43.098Z,0.90
2023-03-17T00:29:45.357Z,1.90
2023-03-17T00:33:49.024Z,1.95
2023-03-17T00:37:54.876Z,1.30
2023-03-17T00:41:57.080Z,1.55
2023-03-17T00:45:59.165Z,0.80
2023-03-17T00:50:01.377Z,0.68
2023-03-17T00:54:03.683Z,1.20
2023-03-17T00:58:33.966Z,0.93
2023-03-17T01:02:36.285Z,0.93
2023-03-17T01:06:38.682Z,1.10
2023-03-17T01:10:41.771Z,1.65
2023-03-17T01:14:44.142Z,1.17
2023-03-17T01:18:47.374Z,1.38
2023-03-17T01:22:50.703Z,1.30
2023-03-17T01:26:52.891Z,1.60
2023-03-17T01:30:55.644Z,1.58
2023-03-17T01:34:59.258Z,1.37
2023-03-17T01:39:01.937Z,0.90
2023-03-17T01:43:19.043Z,0.88
2023-03-17T01:47:22.292Z,0.70
2023-03-17T01:51:35.985Z,0.60
2023-03-17T01:55:38.643Z,0.65
2023-03-17T01:59:50.254Z,0.88
2023-03-17T02:03:53.727Z,1.00
2023-03-17T02:07:58.779Z,0.50
2023-03-17T02:12:05.405Z,0.73
2023-03-17T02:16:08.124Z,0.55
2023-03-17T02:20:16.311Z,0.70
2023-03-17T02:24:28.040Z,0.77
2023-03-17T02:28:31.798Z,0.47
2023-03-17T02:32:38.049Z,0.60
2023-03-17T02:36:40.797Z,1.00
2023-03-17T02:40:43.617Z,0.60
2023-03-17T02:44:45.874Z,0.68
2023-03-17T02:48:49.239Z,0.90
2023-03-17T02:52:51.892Z,0.50
2023-03-17T02:56:54.032Z,0.68
2023-03-17T03:00:56.681Z,0.70
2023-03-17T03:04:59.289Z,0.47
2023-03-17T03:09:01.880Z,0.75
2023-03-17T03:13:09.027Z,0.40
2023-03-17T03:17:12.832Z,0.70
2023-03-17T03:21:15.513Z,0.50
2023-03-17T03:25:18.008Z,0.50
2023-03-17T03:29:20.437Z,0.40
2023-03-17T03:33:22.891Z,0.55
2023-03-17T03:37:26.081Z,0.63
2023-03-17T03:41:28.338Z,0.60
2023-03-17T03:45:30.997Z,0.90
2023-03-17T03:49:33.574Z,0.40
2023-03-17T03:53:35.758Z,0.45
2023-03-17T03:57:37.978Z,0.50
2023-03-17T04:01:40.247Z,0.50
2023-03-17T04:05:42.341Z,0.50
2023-03-17T04:09:44.476Z,0.57
2023-03-17T04:13:46.646Z,0.40
2023-03-17T04:17:48.819Z,0.40
2023-03-17T04:21:53.592Z,0.45
2023-03-17T04:25:56.877Z,0.68
2023-03-17T04:29:59.453Z,0.50
2023-03-17T04:34:01.787Z,0.30
2023-03-17T04:38:04.451Z,0.55
2023-03-17T04:42:06.949Z,0.43
2023-03-17T04:46:09.513Z,0.52
2023-03-17T04:50:12.330Z,0.43
2023-03-17T04:54:14.501Z,0.40
2023-03-17T04:58:29.868Z,0.52
2023-03-17T05:02:32.543Z,0.40
2023-03-17T05:06:35.969Z,0.70
2023-03-17T05:10:38.038Z,0.80
2023-03-17T05:14:40.639Z,0.50
2023-03-17T05:18:43.789Z,1.23
2023-03-17T05:22:46.622Z,0.60
2023-03-17T05:26:48.873Z,0.70
2023-03-17T05:30:52.201Z,0.90
2023-03-17T05:34:54.584Z,0.93
2023-03-17T05:38:56.765Z,1.02
2023-03-17T05:42:58.918Z,0.65
2023-03-17T05:47:01.234Z,0.47
2023-03-17T05:51:03.719Z,0.88
2023-03-17T05:55:07.910Z,1.02
2023-03-17T05:59:14.968Z,0.73
2023-03-17T06:03:17.303Z,0.70
2023-03-17T06:07:19.475Z,0.90
2023-03-17T06:11:22.180Z,1.02
2023-03-17T06:20:19.517Z,1.05
2023-03-17T06:24:21.801Z,1.23
2023-03-17T06:28:25.073Z,0.95
2023-03-17T06:32:27.895Z,1.20
2023-03-17T06:36:32.618Z,0.60
2023-03-17T06:40:35.099Z,0.50
2023-03-17T06:44:38.073Z,0.73
2023-03-17T06:48:40.240Z,1.08
2023-03-17T06:52:42.828Z,1.42
2023-03-17T06:56:45.351Z,0.80
2023-03-17T07:00:49.454Z,1.30
2023-03-17T07:04:53.738Z,0.82
2023-03-17T07:08:56.837Z,0.82
2023-03-17T07:13:05.406Z,1.08
2023-03-17T07:17:14.876Z,0.40
2023-03-17T07:21:21.113Z,0.90
2023-03-17T07:25:24.222Z,0.70
2023-03-17T07:29:32.991Z,0.82
2023-03-17T07:33:37.142Z,1.00
2023-03-17T07:37:41.952Z,0.57
2023-03-17T07:41:44.455Z,1.10
2023-03-17T07:45:53.692Z,0.80
2023-03-17T07:49:58.176Z,0.88
2023-03-17T07:54:04.765Z,0.95
2023-03-17T07:58:15.794Z,0.80
2023-03-17T08:02:23.445Z,0.83
2023-03-17T08:06:26.740Z,1.17
2023-03-17T08:10:29.315Z,0.77
2023-03-17T08:14:32.461Z,0.50
2023-03-17T08:18:36.396Z,0.57
2023-03-17T08:22:40.981Z,0.60
2023-03-17T08:26:48.683Z,0.60
2023-03-17T08:30:51.293Z,0.50
2023-03-17T08:34:54.860Z,0.50
2023-03-17T08:38:59.113Z,0.60
2023-03-17T08:43:01.493Z,0.60
2023-03-17T08:47:04.454Z,0.50
2023-03-17T08:51:11.316Z,0.70
2023-03-17T08:55:15.542Z,0.43
2023-03-17T08:59:17.908Z,0.50
2023-03-17T09:03:21.668Z,0.32
2023-03-17T09:07:24.010Z,0.20
2023-03-17T09:11:30.658Z,0.50
2023-03-17T09:15:39.178Z,0.40
2023-03-17T09:19:43.886Z,0.60
2023-03-17T09:23:49.908Z,0.47
2023-03-17T09:27:55.904Z,0.45
2023-03-17T09:31:58.193Z,0.60
2023-03-17T09:36:00.762Z,0.45
2023-03-17T09:40:08.516Z,0.40
2023-03-17T09:44:26.424Z,0.60
2023-03-17T09:48:46.994Z,0.52
2023-03-17T09:52:55.538Z,0.68
2023-03-17T09:57:06.364Z,0.73
2023-03-17T10:01:10.752Z,0.60
2023-03-17T10:10:15.665Z,0.60
2023-03-17T10:14:22.541Z,0.88
2023-03-17T10:18:31.462Z,0.50
2023-03-17T10:23:18.463Z,0.65
2023-03-17T10:27:21.740Z,0.70
2023-03-17T10:31:30.820Z,0.65
2023-03-17T10:35:37.216Z,0.50
2023-03-17T10:39:49.460Z,0.60
2023-03-17T10:43:52.283Z,0.65
2023-03-17T10:47:57.486Z,0.50
2023-03-17T10:52:00.988Z,0.50
2023-03-17T10:56:20.544Z,0.60
2023-03-17T11:00:23.538Z,0.60
2023-03-17T11:08:35.562Z,0.40
2023-03-17T11:12:41.440Z,0.50
2023-03-17T11:16:56.956Z,0.50
2023-03-17T11:21:20.163Z,0.68
2023-03-17T11:25:23.685Z,0.80
2023-03-17T11:29:35.213Z,0.60
2023-03-17T11:33:40.533Z,0.60
2023-03-17T11:37:42.757Z,0.60
2023-03-17T11:42:10.917Z,0.40
2023-03-17T11:46:38.163Z,0.60
2023-03-17T11:50:45.809Z,1.60
2023-03-17T11:55:25.066Z,1.13
2023-03-17T11:59:47.659Z,1.45
2023-03-17T12:04:28.358Z,1.27
2023-03-17T12:08:45.582Z,1.05
2023-03-17T12:12:54.257Z,1.52
2023-03-17T12:17:00.763Z,1.30
2023-03-17T12:21:33.470Z,1.10
2023-03-17T12:25:57.907Z,1.58
2023-03-17T12:30:24.297Z,1.13
2023-03-17T12:34:36.972Z,1.90
2023-03-17T12:39:09.427Z,1.60
2023-03-17T12:43:36.515Z,1.40
2023-03-17T12:47:38.764Z,1.30
2023-03-17T12:51:53.825Z,1.30
2023-03-17T12:56:01.410Z,1.38
2023-03-17T13:00:15.501Z,1.50
2023-03-17T13:04:35.578Z,1.58
2023-03-17T13:08:41.353Z,1.70
2023-03-17T13:13:04.111Z,1.67
2023-03-17T13:17:19.976Z,1.45
2023-03-17T13:21:23.777Z,1.80
2023-03-17T13:25:38.428Z,1.50
2023-03-17T13:29:46.289Z,1.63
2023-03-17T13:33:54.976Z,1.42
2023-03-17T13:37:59.962Z,1.40
2023-03-17T13:42:26.734Z,1.48
2023-03-17T13:46:41.896Z,1.52
2023-03-17T13:50:44.789Z,1.80
2023-03-17T13:54:58.835Z,1.60
2023-03-17T13:59:05.580Z,1.10
2023-03-17T14:03:29.404Z,1.77
2023-03-17T14:07:51.079Z,1.70
2023-03-17T14:11:54.824Z,1.45
2023-03-17T14:16:33.047Z,1.30
2023-03-17T14:20:35.334Z,1.27
2023-03-17T14:24:37.505Z,1.33
2023-03-17T14:28:40.222Z,1.23
2023-03-17T14:32:47.415Z,1.45
2023-03-17T14:36:51.733Z,1.25
2023-03-17T14:45:19.246Z,1.23
2023-03-17T14:49:23.233Z,2.97
2023-03-17T14:53:26.507Z,1.80
2023-03-17T14:57:33.413Z,1.45
2023-03-17T15:01:43.658Z,1.80
2023-03-17T15:05:46.815Z,1.42
2023-03-17T15:09:59.816Z,1.48
2023-03-17T15:14:21.607Z,1.55
2023-03-17T15:18:25.473Z,1.65
2023-03-17T15:22:41.587Z,1.63
2023-03-17T15:26:43.747Z,1.45
2023-03-17T15:30:51.592Z,1.48
2023-03-17T15:34:57.219Z,1.98
2023-03-17T15:38:59.533Z,1.35
2023-03-17T15:43:01.742Z,1.30
2023-03-17T15:47:04.437Z,1.40
2023-03-17T15:51:07.500Z,1.10
2023-03-17T15:55:21.425Z,1.25
2023-03-17T15:59:23.850Z,1.23
2023-03-17T16:03:32.750Z,1.20
2023-03-17T16:07:35.021Z,1.30
2023-03-17T16:11:39.388Z,1.42
2023-03-17T16:15:46.348Z,1.40
2023-03-17T16:19:48.881Z,2.15
2023-03-17T16:23:51.067Z,1.92
2023-03-17T16:27:55.719Z,1.90
2023-03-17T16:31:57.897Z,2.08
2023-03-17T16:36:01.434Z,1.98
2023-03-17T16:40:05.120Z,1.85
2023-03-17T16:44:11.712Z,1.50
2023-03-17T16:48:14.994Z,1.42
2023-03-17T16:52:17.392Z,1.43
2023-03-17T16:56:22.541Z,1.75
2023-03-17T17:00:28.577Z,1.77
2023-03-17T17:04:31.317Z,1.73
2023-03-17T17:08:33.648Z,2.10
2023-03-17T17:12:36.023Z,1.40
2023-03-17T17:16:42.144Z,2.15
2023-03-17T17:20:46.035Z,3.15
2023-03-17T17:24:48.246Z,3.42
2023-03-17T17:28:50.546Z,2.53
2023-03-17T17:32:53.346Z,7.15
2023-03-17T17:36:55.633Z,8.73
2023-03-17T17:40:59.570Z,8.95
2023-03-17T17:45:02.186Z,6.72
2023-03-17T17:49:04.621Z,4.43
2023-03-17T17:53:11.689Z,3.63
2023-03-17T17:57:14.524Z,4.68
2023-03-17T18:01:20.562Z,3.88
2023-03-17T18:05:23.098Z,16.65
2023-03-17T18:09:25.260Z,13.82
2023-03-17T18:13:27.475Z,11.85
2023-03-17T18:17:32.005Z,11.75
2023-03-17T18:21:36.640Z,12.90
2023-03-17T18:25:39.000Z,16.10
2023-03-17T18:29:41.616Z,13.20
2023-03-17T18:33:47.034Z,16.17
2023-03-17T18:37:50.940Z,12.10
2023-03-17T18:41:54.137Z,10.82
2023-03-17T18:45:56.380Z,11.60
2023-03-17T18:49:59.787Z,12.07
2023-03-17T18:54:03.079Z,11.77
2023-03-17T18:58:05.448Z,14.23
2023-03-17T19:02:08.692Z,12.88
2023-03-17T19:06:13.676Z,9.70
2023-03-17T19:10:16.201Z,12.45
2023-03-17T19:14:18.399Z,11.18
2023-03-17T19:18:20.860Z,7.00
2023-03-17T19:22:23.294Z,8.23
2023-03-17T19:26:26.078Z,14.48
2023-03-17T19:30:28.374Z,15.15
2023-03-17T19:34:30.636Z,13.68
2023-03-17T19:38:33.120Z,14.27
2023-03-17T19:42:35.609Z,12.10
2023-03-17T19:46:38.439Z,8.75
2023-03-17T19:50:41.217Z,6.70
2023-03-17T19:54:45.987Z,6.28
2023-03-17T19:58:48.253Z,7.65
2023-03-17T20:02:51.388Z,6.43
2023-03-17T20:06:55.782Z,8.68
2023-03-17T20:10:58.734Z,9.52
2023-03-17T20:15:01.620Z,8.57
2023-03-17T20:19:03.971Z,7.80
2023-03-17T20:23:06.104Z,8.43
2023-03-17T20:27:10.643Z,11.65
2023-03-17T20:35:14.913Z,12.98
2023-03-17T20:39:20.061Z,9.60
2023-03-17T20:43:22.711Z,9.65
2023-03-17T20:47:24.951Z,11.38
2023-03-17T20:51:27.972Z,10.45
2023-03-17T20:55:30.935Z,12.75
2023-03-17T20:59:34.566Z,17.27
2023-03-17T21:03:37.424Z,14.03
2023-03-17T21:07:39.670Z,12.43
2023-03-17T21:11:42.276Z,12.82
2023-03-17T21:15:44.606Z,11.13
2023-03-17T21:19:47.464Z,9.38
2023-03-17T21:23:49.650Z,8.43
2023-03-17T21:27:52.850Z,10.20
2023-03-17T21:31:56.949Z,10.85
2023-03-17T21:35:59.558Z,10.88
2023-03-17T21:40:02.025Z,12.27
2023-03-17T21:44:06.301Z,11.85
2023-03-17T21:48:08.719Z,9.52
2023-03-17T21:52:11.454Z,10.13
2023-03-17T21:56:14.147Z,12.43
2023-03-17T22:00:17.442Z,10.30
2023-03-17T22:04:19.978Z,12.40
2023-03-17T22:08:22.832Z,12.38
2023-03-17T22:12:25.540Z,13.82
2023-03-17T22:16:28.224Z,11.60
2023-03-17T22:20:30.744Z,21.05
2023-03-17T22:24:33.672Z,12.43
2023-03-17T22:28:36.042Z,12.77
2023-03-17T22:32:38.280Z,12.85
2023-03-17T22:36:41.257Z,11.07
2023-03-17T22:40:43.652Z,9.50
2023-03-17T22:44:48.580Z,10.65
2023-03-17T22:48:51.962Z,8.98
2023-03-17T22:52:54.434Z,10.25
2023-03-17T22:56:57.136Z,8.63
2023-03-17T23:01:00.279Z,8.48
2023-03-17T23:05:02.949Z,7.07
2023-03-17T23:09:05.858Z,7.43
2023-03-17T23:13:08.778Z,7.10
2023-03-17T23:17:11.141Z,8.15
2023-03-17T23:21:21.372Z,8.93
2023-03-17T23:25:25.433Z,9.10
2023-03-17T23:29:27.863Z,8.57
2023-03-17T23:33:31.091Z,8.68
2023-03-17T23:37:33.476Z,8.57
2023-03-17T23:41:36.376Z,9.35
2023-03-17T23:45:41.341Z,8.55
2023-03-17T23:49:44.008Z,9.02
2023-03-17T23:53:46.585Z,7.95
2023-03-17T23:57:50.301Z,8.65
